PWSweather.com
Personal Weather Stations
Station Observations
GRD01
Warsaw, LesznoPL 05-084

WarsawLesznoPL 05-084

Lat: 52.257404, Lon: 20.564847

Elevation: 298

Station Type: WH3080

http://pogoda.kampinos.waw.pl

High Low Average
Temperature 74.1°F23.4°C 53.1°F11.7°C 63.8°F17.7°C
Dew Point 55.6°F13.1°C 44.5°F6.9°C 50.0°F10.0°C
Winds 13.0 mph 20.9 kmh Calm Calm 4.0 mph SW6.4 kmh SW
Wind Gusts 20.6 mph33.2 kmh -- 7.0 mph11.3 kmh
Humidity 92% 35% 64%
Pressure 30.37 in1028.4 mb 30.30 in1026.1 mb -
Precipitation 0.00 in0.0 mm - -
Hour Temp Dew Point Humidity Winds Wind Gusts Pressure Precip Precip Rate Daily Precip Total
12:00 AM 54.5°F12.5°C 50.1°F10.1°C 85% 0.7 mph NE1.1 kmh NE 1.6 mph2.6 kmh 30.34 in1027.4 mb 0.00 in0.0 mm 0.00 in0.0 mm 0.00 in0.0 mm
12:15 AM 54.3°F12.4°C 51.4°F10.8°C 90% Calm Calm 1.6 mph2.6 kmh 30.34 in1027.4 mb 0.00 in0.0 mm 0.00 in0.0 mm 0.00 in0.0 mm
12:30 AM 54.0°F12.2°C 51.1°F10.6°C 90% Calm Calm 1.6 mph2.6 kmh 30.33 in1027.1 mb 0.00 in0.0 mm 0.00 in0.0 mm 0.00 in0.0 mm
12:45 AM 53.4°F11.9°C 50.6°F10.3°C 90% Calm Calm -- 30.33 in1027.1 mb 0.00 in0.0 mm 0.00 in0.0 mm 0.00 in0.0 mm
01:00 AM 53.4°F11.9°C 50.6°F10.3°C 90% Calm Calm 1.6 mph2.6 kmh 30.34 in1027.4 mb 0.00 in0.0 mm 0.00 in0.0 mm 0.00 in0.0 mm
01:15 AM 53.2°F11.8°C 50.4°F10.2°C 90% Calm Calm -- 30.33 in1027.1 mb 0.00 in0.0 mm 0.00 in0.0 mm 0.00 in0.0 mm
01:30 AM 53.1°F11.7°C 50.2°F10.1°C 90% 0.7 mph NE1.1 kmh NE 2.2 mph3.5 kmh 30.33 in1027.1 mb 0.00 in0.0 mm 0.00 in0.0 mm 0.00 in0.0 mm
01:45 AM 53.4°F11.9°C 50.9°F10.5°C 91% Calm Calm 1.6 mph2.6 kmh 30.34 in1027.4 mb 0.00 in0.0 mm 0.00 in0.0 mm 0.00 in0.0 mm
02:00 AM 53.6°F12.0°C 51.0°F10.6°C 91% 1.6 mph NE2.6 kmh NE 2.2 mph3.5 kmh 30.33 in1027.1 mb 0.00 in0.0 mm 0.00 in0.0 mm 0.00 in0.0 mm
02:15 AM 54.3°F12.4°C 52.0°F11.1°C 92% 1.6 mph NE2.6 kmh NE 2.2 mph3.5 kmh 30.32 in1026.8 mb 0.00 in0.0 mm 0.00 in0.0 mm 0.00 in0.0 mm
02:30 AM 54.9°F12.7°C 52.0°F11.1°C 90% Calm Calm 1.6 mph2.6 kmh 30.33 in1027.1 mb 0.00 in0.0 mm 0.00 in0.0 mm 0.00 in0.0 mm
02:45 AM 55.4°F13.0°C 52.8°F11.6°C 91% Calm Calm 2.2 mph3.5 kmh 30.33 in1027.1 mb 0.00 in0.0 mm 0.00 in0.0 mm 0.00 in0.0 mm
03:00 AM 55.8°F13.2°C 53.2°F11.8°C 91% 0.7 mph NE1.1 kmh NE 2.2 mph3.5 kmh 30.33 in1027.1 mb 0.00 in0.0 mm 0.00 in0.0 mm 0.00 in0.0 mm
03:15 AM 55.8°F13.2°C 52.9°F11.6°C 90% 0.7 mph NE1.1 kmh NE 1.6 mph2.6 kmh 30.33 in1027.1 mb 0.00 in0.0 mm 0.00 in0.0 mm 0.00 in0.0 mm
03:30 AM 55.6°F13.1°C 52.7°F11.5°C 90% 2.2 mph N3.5 kmh N 4.5 mph7.2 kmh 30.33 in1027.1 mb 0.00 in0.0 mm 0.00 in0.0 mm 0.00 in0.0 mm
03:45 AM 55.2°F12.9°C 52.3°F11.3°C 90% Calm Calm -- 30.32 in1026.8 mb 0.00 in0.0 mm 0.00 in0.0 mm 0.00 in0.0 mm
04:00 AM 55.2°F12.9°C 52.0°F11.1°C 89% Calm Calm 0.7 mph1.1 kmh 30.32 in1026.8 mb 0.00 in0.0 mm 0.00 in0.0 mm 0.00 in0.0 mm
04:15 AM 55.2°F12.9°C 52.3°F11.3°C 90% Calm Calm 10.7 mph17.2 kmh 30.32 in1026.8 mb 0.00 in0.0 mm 0.00 in0.0 mm 0.00 in0.0 mm
04:30 AM 55.0°F12.8°C 52.2°F11.2°C 90% Calm Calm 1.6 mph2.6 kmh 30.32 in1026.8 mb 0.00 in0.0 mm 0.00 in0.0 mm 0.00 in0.0 mm
04:45 AM 54.9°F12.7°C 51.7°F10.9°C 89% Calm Calm 0.7 mph1.1 kmh 30.32 in1026.8 mb 0.00 in0.0 mm 0.00 in0.0 mm 0.00 in0.0 mm
05:00 AM 55.2°F12.9°C 52.3°F11.3°C 90% Calm Calm 0.7 mph1.1 kmh 30.31 in1026.4 mb 0.00 in0.0 mm 0.00 in0.0 mm 0.00 in0.0 mm
05:15 AM 55.8°F13.2°C 52.9°F11.6°C 90% Calm Calm 2.2 mph3.5 kmh 30.31 in1026.4 mb 0.00 in0.0 mm 0.00 in0.0 mm 0.00 in0.0 mm
05:30 AM 56.3°F13.5°C 53.7°F12.1°C 91% Calm Calm 1.6 mph2.6 kmh 30.31 in1026.4 mb 0.00 in0.0 mm 0.00 in0.0 mm 0.00 in0.0 mm
05:45 AM 57.0°F13.9°C 54.4°F12.4°C 91% 3.1 mph WNW5.0 kmh WNW 3.8 mph6.1 kmh 30.32 in1026.8 mb 0.00 in0.0 mm 0.00 in0.0 mm 0.00 in0.0 mm
06:00 AM 57.7°F14.3°C 55.1°F12.8°C 91% 4.5 mph WSW7.2 kmh WSW 6.0 mph9.7 kmh 30.32 in1026.8 mb 0.00 in0.0 mm 0.00 in0.0 mm 0.00 in0.0 mm
06:15 AM 58.3°F14.6°C 55.4°F13.0°C 90% 1.6 mph WSW2.6 kmh WSW 3.8 mph6.1 kmh 30.31 in1026.4 mb 0.00 in0.0 mm 0.00 in0.0 mm 0.00 in0.0 mm
06:30 AM 58.5°F14.7°C 54.9°F12.7°C 88% 1.6 mph WNW2.6 kmh WNW 3.8 mph6.1 kmh 30.32 in1026.8 mb 0.00 in0.0 mm 0.00 in0.0 mm 0.00 in0.0 mm
06:45 AM 58.5°F14.7°C 54.3°F12.4°C 86% 2.2 mph NW3.5 kmh NW 4.5 mph7.2 kmh 30.32 in1026.8 mb 0.00 in0.0 mm 0.00 in0.0 mm 0.00 in0.0 mm
07:00 AM 59.0°F15.0°C 54.5°F12.5°C 85% 3.1 mph NW5.0 kmh NW 6.0 mph9.7 kmh 30.32 in1026.8 mb 0.00 in0.0 mm 0.00 in0.0 mm 0.00 in0.0 mm
07:15 AM 60.6°F15.9°C 55.1°F12.8°C 82% 2.2 mph N3.5 kmh N 6.0 mph9.7 kmh 30.32 in1026.8 mb 0.00 in0.0 mm 0.00 in0.0 mm 0.00 in0.0 mm
07:30 AM 61.9°F16.6°C 55.3°F12.9°C 79% 3.8 mph NNW6.1 kmh NNW 6.9 mph11.1 kmh 30.32 in1026.8 mb 0.00 in0.0 mm 0.00 in0.0 mm 0.00 in0.0 mm
07:45 AM 63.3°F17.4°C 55.6°F13.1°C 76% 4.5 mph NNW7.2 kmh NNW 8.3 mph13.4 kmh 30.32 in1026.8 mb 0.00 in0.0 mm 0.00 in0.0 mm 0.00 in0.0 mm
08:00 AM 64.4°F18.0°C 54.4°F12.4°C 70% 8.3 mph NNW13.4 kmh NNW 11.4 mph18.3 kmh 30.32 in1026.8 mb 0.00 in0.0 mm 0.00 in0.0 mm 0.00 in0.0 mm
08:15 AM 64.8°F18.2°C 53.1°F11.7°C 66% 3.8 mph N6.1 kmh N 10.7 mph17.2 kmh 30.32 in1026.8 mb 0.00 in0.0 mm 0.00 in0.0 mm 0.00 in0.0 mm
08:30 AM 65.5°F18.6°C 53.4°F11.9°C 65% 5.4 mph NNW8.7 kmh NNW 9.2 mph14.8 kmh 30.32 in1026.8 mb 0.00 in0.0 mm 0.00 in0.0 mm 0.00 in0.0 mm
08:45 AM 66.2°F19.0°C 53.7°F12.1°C 64% 4.5 mph NW7.2 kmh NW 7.6 mph12.2 kmh 30.32 in1026.8 mb 0.00 in0.0 mm 0.00 in0.0 mm 0.00 in0.0 mm
09:00 AM 66.7°F19.3°C 53.7°F12.1°C 63% 6.9 mph NW11.1 kmh NW 9.2 mph14.8 kmh 30.32 in1026.8 mb 0.00 in0.0 mm 0.00 in0.0 mm 0.00 in0.0 mm
09:15 AM 67.8°F19.9°C 54.3°F12.4°C 62% 5.4 mph WNW8.7 kmh WNW 9.2 mph14.8 kmh 30.32 in1026.8 mb 0.00 in0.0 mm 0.00 in0.0 mm 0.00 in0.0 mm
09:30 AM 67.8°F19.9°C 53.4°F11.9°C 60% 3.1 mph NNW5.0 kmh NNW 7.6 mph12.2 kmh 30.32 in1026.8 mb 0.00 in0.0 mm 0.00 in0.0 mm 0.00 in0.0 mm
09:45 AM 68.7°F20.4°C 53.3°F11.8°C 58% 4.5 mph NW7.2 kmh NW 9.8 mph15.8 kmh 30.32 in1026.8 mb 0.00 in0.0 mm 0.00 in0.0 mm 0.00 in0.0 mm
10:00 AM 68.5°F20.3°C 51.7°F10.9°C 55% 3.1 mph NNW5.0 kmh NNW 10.7 mph17.2 kmh 30.32 in1026.8 mb 0.00 in0.0 mm 0.00 in0.0 mm 0.00 in0.0 mm
10:15 AM 69.8°F21.0°C 53.4°F11.9°C 56% 6.9 mph WNW11.1 kmh WNW 9.8 mph15.8 kmh 30.32 in1026.8 mb 0.00 in0.0 mm 0.00 in0.0 mm 0.00 in0.0 mm
10:30 AM 69.1°F20.6°C 52.2°F11.2°C 55% 7.6 mph NNW12.2 kmh NNW 13.6 mph21.9 kmh 30.32 in1026.8 mb 0.00 in0.0 mm 0.00 in0.0 mm 0.00 in0.0 mm
10:45 AM 69.8°F21.0°C 51.4°F10.8°C 52% 5.4 mph N8.7 kmh N 13.0 mph20.9 kmh 30.32 in1026.8 mb 0.00 in0.0 mm 0.00 in0.0 mm 0.00 in0.0 mm
11:00 AM 70.0°F21.1°C 51.5°F10.8°C 52% 5.4 mph NNE8.7 kmh NNE 11.4 mph18.3 kmh 30.32 in1026.8 mb 0.00 in0.0 mm 0.00 in0.0 mm 0.00 in0.0 mm
11:15 AM 70.3°F21.3°C 50.3°F10.2°C 49% 4.5 mph N7.2 kmh N 14.5 mph23.3 kmh 30.31 in1026.4 mb 0.00 in0.0 mm 0.00 in0.0 mm 0.00 in0.0 mm
11:30 AM 71.4°F21.9°C 50.1°F10.1°C 47% 6.9 mph NW11.1 kmh NW 16.8 mph27.0 kmh 30.32 in1026.8 mb 0.00 in0.0 mm 0.00 in0.0 mm 0.00 in0.0 mm
11:45 AM 70.2°F21.2°C 50.1°F10.1°C 49% 9.2 mph NNW14.8 kmh NNW 16.8 mph27.0 kmh 30.31 in1026.4 mb 0.00 in0.0 mm 0.00 in0.0 mm 0.00 in0.0 mm
12:00 PM 70.2°F21.2°C 50.1°F10.1°C 49% 7.6 mph NW12.2 kmh NW 10.7 mph17.2 kmh 30.32 in1026.8 mb 0.00 in0.0 mm 0.00 in0.0 mm 0.00 in0.0 mm
12:15 PM 70.3°F21.3°C 50.3°F10.2°C 49% 3.8 mph N6.1 kmh N 10.7 mph17.2 kmh 30.31 in1026.4 mb 0.00 in0.0 mm 0.00 in0.0 mm 0.00 in0.0 mm
12:30 PM 71.1°F21.7°C 49.8°F9.9°C 47% 6.9 mph NNW11.1 kmh NNW 9.2 mph14.8 kmh 30.32 in1026.8 mb 0.00 in0.0 mm 0.00 in0.0 mm 0.00 in0.0 mm
12:45 PM 71.1°F21.7°C 49.2°F9.6°C 46% 9.2 mph N14.8 kmh N 13.0 mph20.9 kmh 30.32 in1026.8 mb 0.00 in0.0 mm 0.00 in0.0 mm 0.00 in0.0 mm
01:00 PM 70.9°F21.6°C 49.6°F9.8°C 47% 9.2 mph N14.8 kmh N 10.7 mph17.2 kmh 30.31 in1026.4 mb 0.00 in0.0 mm 0.00 in0.0 mm 0.00 in0.0 mm
01:15 PM 71.4°F21.9°C 48.4°F9.1°C 44% 2.2 mph NNW3.5 kmh NNW 9.8 mph15.8 kmh 30.31 in1026.4 mb 0.00 in0.0 mm 0.00 in0.0 mm 0.00 in0.0 mm
01:30 PM 70.7°F21.5°C 48.9°F9.4°C 46% 4.5 mph N7.2 kmh N 11.4 mph18.3 kmh 30.32 in1026.8 mb 0.00 in0.0 mm 0.00 in0.0 mm 0.00 in0.0 mm
01:45 PM 71.2°F21.8°C 50.0°F10.0°C 47% 3.8 mph N6.1 kmh N 10.7 mph17.2 kmh 30.31 in1026.4 mb 0.00 in0.0 mm 0.00 in0.0 mm 0.00 in0.0 mm
02:00 PM 72.1°F22.3°C 49.0°F9.4°C 44% 6.9 mph N11.1 kmh N 16.8 mph27.0 kmh 30.31 in1026.4 mb 0.00 in0.0 mm 0.00 in0.0 mm 0.00 in0.0 mm
02:15 PM 71.6°F22.0°C 48.5°F9.2°C 44% 6.0 mph N9.7 kmh N 12.1 mph19.5 kmh 30.31 in1026.4 mb 0.00 in0.0 mm 0.00 in0.0 mm 0.00 in0.0 mm
02:30 PM 71.6°F22.0°C 47.9°F8.8°C 43% 9.2 mph NNW14.8 kmh NNW 13.0 mph20.9 kmh 30.31 in1026.4 mb 0.00 in0.0 mm 0.00 in0.0 mm 0.00 in0.0 mm
02:45 PM 73.2°F22.9°C 47.4°F8.6°C 40% 9.2 mph N14.8 kmh N 13.0 mph20.9 kmh 30.31 in1026.4 mb 0.00 in0.0 mm 0.00 in0.0 mm 0.00 in0.0 mm
03:00 PM 73.2°F22.9°C 46.8°F8.2°C 39% 6.9 mph N11.1 kmh N 14.5 mph23.3 kmh 30.31 in1026.4 mb 0.00 in0.0 mm 0.00 in0.0 mm 0.00 in0.0 mm
03:15 PM 73.6°F23.1°C 45.7°F7.6°C 37% 9.2 mph N14.8 kmh N 15.2 mph24.5 kmh 30.30 in1026.1 mb 0.00 in0.0 mm 0.00 in0.0 mm 0.00 in0.0 mm
03:30 PM 73.8°F23.2°C 45.1°F7.3°C 36% 5.4 mph NNE8.7 kmh NNE 14.5 mph23.3 kmh 30.31 in1026.4 mb 0.00 in0.0 mm 0.00 in0.0 mm 0.00 in0.0 mm
03:45 PM 73.9°F23.3°C 45.3°F7.4°C 36% 7.6 mph NNW12.2 kmh NNW 15.9 mph25.6 kmh 30.31 in1026.4 mb 0.00 in0.0 mm 0.00 in0.0 mm 0.00 in0.0 mm
04:00 PM 74.1°F23.4°C 44.7°F7.1°C 35% 9.2 mph N14.8 kmh N 16.8 mph27.0 kmh 30.30 in1026.1 mb 0.00 in0.0 mm 0.00 in0.0 mm 0.00 in0.0 mm
04:15 PM 74.1°F23.4°C 44.7°F7.1°C 35% 13.0 mph NNE20.9 kmh NNE 18.3 mph29.5 kmh 30.30 in1026.1 mb 0.00 in0.0 mm 0.00 in0.0 mm 0.00 in0.0 mm
04:30 PM 73.0°F22.8°C 44.5°F6.9°C 36% 6.0 mph N9.7 kmh N 15.2 mph24.5 kmh 30.30 in1026.1 mb 0.00 in0.0 mm 0.00 in0.0 mm 0.00 in0.0 mm
04:45 PM 73.9°F23.3°C 46.0°F7.8°C 37% 9.2 mph N14.8 kmh N 16.8 mph27.0 kmh 30.30 in1026.1 mb 0.00 in0.0 mm 0.00 in0.0 mm 0.00 in0.0 mm
05:00 PM 73.2°F22.9°C 46.8°F8.2°C 39% 7.6 mph N12.2 kmh N 20.6 mph33.2 kmh 30.31 in1026.4 mb 0.00 in0.0 mm 0.00 in0.0 mm 0.00 in0.0 mm
05:15 PM 73.6°F23.1°C 47.8°F8.8°C 40% 9.8 mph N15.8 kmh N 11.4 mph18.3 kmh 30.30 in1026.1 mb 0.00 in0.0 mm 0.00 in0.0 mm 0.00 in0.0 mm
05:30 PM 73.4°F23.0°C 47.6°F8.7°C 40% 9.2 mph NNW14.8 kmh NNW 12.1 mph19.5 kmh 30.30 in1026.1 mb 0.00 in0.0 mm 0.00 in0.0 mm 0.00 in0.0 mm
05:45 PM 73.0°F22.8°C 47.3°F8.5°C 40% 6.9 mph NNW11.1 kmh NNW 13.0 mph20.9 kmh 30.31 in1026.4 mb 0.00 in0.0 mm 0.00 in0.0 mm 0.00 in0.0 mm
06:00 PM 72.1°F22.3°C 48.4°F9.1°C 43% 6.0 mph N9.7 kmh N 8.3 mph13.4 kmh 30.30 in1026.1 mb 0.00 in0.0 mm 0.00 in0.0 mm 0.00 in0.0 mm
06:15 PM 71.6°F22.0°C 47.3°F8.5°C 42% 5.4 mph N8.7 kmh N 10.7 mph17.2 kmh 30.31 in1026.4 mb 0.00 in0.0 mm 0.00 in0.0 mm 0.00 in0.0 mm
06:30 PM 71.1°F21.7°C 47.4°F8.6°C 43% 3.1 mph NNE5.0 kmh NNE 5.4 mph8.7 kmh 30.31 in1026.4 mb 0.00 in0.0 mm 0.00 in0.0 mm 0.00 in0.0 mm
06:45 PM 70.2°F21.2°C 47.2°F8.4°C 44% 2.2 mph NNE3.5 kmh NNE 4.5 mph7.2 kmh 30.32 in1026.8 mb 0.00 in0.0 mm 0.00 in0.0 mm 0.00 in0.0 mm
07:00 PM 69.6°F20.9°C 46.7°F8.2°C 44% 3.1 mph N5.0 kmh N 3.8 mph6.1 kmh 30.32 in1026.8 mb 0.00 in0.0 mm 0.00 in0.0 mm 0.00 in0.0 mm
07:15 PM 68.0°F20.0°C 47.0°F8.3°C 47% 3.8 mph N6.1 kmh N 4.5 mph7.2 kmh 30.32 in1026.8 mb 0.00 in0.0 mm 0.00 in0.0 mm 0.00 in0.0 mm
07:30 PM 66.7°F19.3°C 47.5°F8.6°C 50% 0.7 mph N1.1 kmh N 3.1 mph5.0 kmh 30.32 in1026.8 mb 0.00 in0.0 mm 0.00 in0.0 mm 0.00 in0.0 mm
07:45 PM 65.1°F18.4°C 47.1°F8.4°C 52% 2.2 mph N3.5 kmh N 3.1 mph5.0 kmh 30.34 in1027.4 mb 0.00 in0.0 mm 0.00 in0.0 mm 0.00 in0.0 mm
08:00 PM 63.7°F17.6°C 46.7°F8.2°C 54% 2.2 mph N3.5 kmh N 3.8 mph6.1 kmh 30.35 in1027.8 mb 0.00 in0.0 mm 0.00 in0.0 mm 0.00 in0.0 mm
08:15 PM 62.2°F16.8°C 48.2°F9.0°C 60% 3.1 mph N5.0 kmh N 4.5 mph7.2 kmh 30.35 in1027.8 mb 0.00 in0.0 mm 0.00 in0.0 mm 0.00 in0.0 mm
08:30 PM 62.4°F16.9°C 48.3°F9.1°C 60% 3.8 mph NNE6.1 kmh NNE 7.6 mph12.2 kmh 30.34 in1027.4 mb 0.00 in0.0 mm 0.00 in0.0 mm 0.00 in0.0 mm
08:45 PM 62.4°F16.9°C 47.9°F8.8°C 59% 3.1 mph N5.0 kmh N 4.5 mph7.2 kmh 30.35 in1027.8 mb 0.00 in0.0 mm 0.00 in0.0 mm 0.00 in0.0 mm
09:00 PM 61.5°F16.4°C 47.5°F8.6°C 60% 3.1 mph N5.0 kmh N 3.8 mph6.1 kmh 30.35 in1027.8 mb 0.00 in0.0 mm 0.00 in0.0 mm 0.00 in0.0 mm
09:15 PM 60.6°F15.9°C 47.1°F8.4°C 61% 2.2 mph N3.5 kmh N 3.8 mph6.1 kmh 30.35 in1027.8 mb 0.00 in0.0 mm 0.00 in0.0 mm 0.00 in0.0 mm
09:30 PM 59.7°F15.4°C 46.7°F8.2°C 62% 2.2 mph N3.5 kmh N 3.8 mph6.1 kmh 30.35 in1027.8 mb 0.00 in0.0 mm 0.00 in0.0 mm 0.00 in0.0 mm
09:45 PM 59.0°F15.0°C 46.8°F8.2°C 64% 1.6 mph N2.6 kmh N 3.1 mph5.0 kmh 30.35 in1027.8 mb 0.00 in0.0 mm 0.00 in0.0 mm 0.00 in0.0 mm
10:00 PM 58.1°F14.5°C 46.4°F8.0°C 65% 2.2 mph N3.5 kmh N 3.8 mph6.1 kmh 30.36 in1028.1 mb 0.00 in0.0 mm 0.00 in0.0 mm 0.00 in0.0 mm
10:15 PM 57.4°F14.1°C 46.5°F8.1°C 67% 2.2 mph N3.5 kmh N 3.8 mph6.1 kmh 30.36 in1028.1 mb 0.00 in0.0 mm 0.00 in0.0 mm 0.00 in0.0 mm
10:30 PM 57.6°F14.2°C 46.7°F8.2°C 67% 1.6 mph N2.6 kmh N 3.8 mph6.1 kmh 30.37 in1028.4 mb 0.00 in0.0 mm 0.00 in0.0 mm 0.00 in0.0 mm
10:45 PM 57.2°F14.0°C 47.1°F8.4°C 69% 1.6 mph N2.6 kmh N 2.2 mph3.5 kmh 30.36 in1028.1 mb 0.00 in0.0 mm 0.00 in0.0 mm 0.00 in0.0 mm
11:00 PM 56.7°F13.7°C 47.0°F8.3°C 70% 1.6 mph N2.6 kmh N 2.2 mph3.5 kmh 30.37 in1028.4 mb 0.00 in0.0 mm 0.00 in0.0 mm 0.00 in0.0 mm
11:15 PM 56.1°F13.4°C 46.5°F8.1°C 70% 1.6 mph N2.6 kmh N 3.1 mph5.0 kmh 30.37 in1028.4 mb 0.00 in0.0 mm 0.00 in0.0 mm 0.00 in0.0 mm
11:30 PM 55.9°F13.3°C 46.7°F8.2°C 71% 2.2 mph N3.5 kmh N 3.1 mph5.0 kmh 30.36 in1028.1 mb 0.00 in0.0 mm 0.00 in0.0 mm 0.00 in0.0 mm
11:45 PM 55.8°F13.2°C 46.5°F8.1°C 71% 1.6 mph N2.6 kmh N 3.1 mph5.0 kmh 30.37 in1028.4 mb 0.00 in0.0 mm 0.00 in0.0 mm 0.00 in0.0 mm